Bridgeville, California
Current Conditions -  °F | °C
As of 4:30 PM on Saturday 25 Oct 2014 (Local Time) from KFOT Reporting Station
Scattered Clouds Scattered Clouds  
Wind Chill: 57°   Ceiling: Unl
Heat Index: 57°   Visibility: 6mi
Dew Point: 54°   Wind: 8mph
Humidity: 88%   Direction: 290°WNW
Pressure: 30.02"   Gusts: NA
Location:  40.47°N, 123.8°W
Report Text: KFOT 252330Z AUTO 29007KT 6SM FEW020 FEW027 SCT060 14/12 A3002 RMK AO1
Loading
Personal Weather Stations






























Interactive Weather Map
Tropical Storm Tracking
New forecast layout! Learn more

10-Day Weather Forecast

Advertisements
Track Severe Weather on mobile